Time;durP1;ratioP1;P1;durP2;ratioP2;P2;SDS_P1;SDS_P2;PMS_P1;PMS_P2;Temp;Humidity;BMP_temperature;BMP_pressure;BME280_temperature;BME280_humidity;BME280_pressure;Samples;Min_cycle;Max_cycle;Signal;HPM_P1;HPM_P2
2022/11/24 00:00:52;;;;;;;2.10;1.77;;;-3.20;99.90;;;;;;5010503;28;20053;-72
2022/11/24 00:03:20;;;;;;;4.22;1.95;;;-3.20;99.90;;;;;;4994154;28;20145;-72
2022/11/24 00:05:47;;;;;;;3.30;2.00;;;-3.20;99.90;;;;;;5007109;28;20049;-73
2022/11/24 00:08:17;;;;;;;1.90;1.67;;;-3.20;99.90;;;;;;5000691;28;20042;-73
2022/11/24 00:10:44;;;;;;;2.88;1.90;;;-3.20;99.90;;;;;;4996131;28;20107;-73
2022/11/24 00:13:12;;;;;;;4.20;2.10;;;-3.20;99.90;;;;;;4997250;28;20395;-74
2022/11/24 00:15:39;;;;;;;4.95;2.40;;;-3.20;99.90;;;;;;4991842;28;20089;-74
2022/11/24 00:18:06;;;;;;;2.58;2.10;;;-3.10;99.90;;;;;;5006062;28;20522;-75
2022/11/24 00:20:34;;;;;;;2.25;2.05;;;-3.10;99.90;;;;;;5008953;28;20072;-73
2022/11/24 00:23:01;;;;;;;2.60;1.80;;;-3.00;99.90;;;;;;5010776;28;20537;-74
2022/11/24 00:25:30;;;;;;;3.05;2.08;;;-3.00;99.90;;;;;;5009921;28;20053;-75
2022/11/24 00:27:58;;;;;;;2.80;2.10;;;-3.00;99.90;;;;;;5008775;28;20042;-74
2022/11/24 00:30:25;;;;;;;3.13;2.17;;;-3.10;99.90;;;;;;5010857;28;20506;-73
2022/11/24 00:32:53;;;;;;;2.72;2.08;;;-3.10;99.90;;;;;;5011142;28;20058;-74
2022/11/24 00:35:20;;;;;;;3.97;2.25;;;-3.10;99.90;;;;;;5010754;28;20056;-74
2022/11/24 00:37:48;;;;;;;2.42;2.22;;;-3.10;99.90;;;;;;5008784;28;20119;-74
2022/11/24 00:40:15;;;;;;;2.35;2.00;;;-3.00;99.90;;;;;;5010952;28;20124;-74
2022/11/24 00:42:44;;;;;;;2.75;2.10;;;-3.00;99.90;;;;;;5011099;28;20124;-74
2022/11/24 00:45:11;;;;;;;4.75;2.53;;;-3.10;99.90;;;;;;5010821;28;20096;-74
2022/11/24 00:47:39;;;;;;;2.92;2.10;;;-3.10;99.90;;;;;;5009912;28;20049;-74
2022/11/24 00:50:07;;;;;;;2.97;2.33;;;-3.10;99.90;;;;;;5011038;28;20050;-75
2022/11/24 00:52:34;;;;;;;2.78;2.42;;;-3.20;99.90;;;;;;4993437;28;20148;-75
2022/11/24 00:55:02;;;;;;;5.68;2.13;;;-3.20;99.90;;;;;;5009904;28;20042;-80
2022/11/24 00:57:30;;;;;;;3.20;2.40;;;-3.10;99.90;;;;;;5011564;28;20054;-80
2022/11/24 00:59:59;;;;;;;4.90;2.13;;;-3.20;99.90;;;;;;5009599;28;20050;-79
2022/11/24 01:02:27;;;;;;;2.90;2.00;;;-3.20;99.90;;;;;;5011339;28;20136;-80
2022/11/24 01:04:54;;;;;;;2.35;2.10;;;-3.20;99.90;;;;;;5008459;28;20057;-79
2022/11/24 01:07:22;;;;;;;4.63;2.58;;;-3.20;99.90;;;;;;5009754;28;20081;-80
2022/11/24 01:09:49;;;;;;;4.28;2.45;;;-3.20;99.90;;;;;;5009423;28;20053;-79
2022/11/24 01:12:16;;;;;;;5.47;2.70;;;-3.10;99.90;;;;;;5011350;28;20717;-80
2022/11/24 01:14:44;;;;;;;3.42;2.92;;;-3.10;99.90;;;;;;5008314;28;20100;-81
2022/11/24 01:17:12;;;;;;;3.92;2.67;;;-3.20;99.90;;;;;;5006129;28;20056;-81
2022/11/24 01:19:39;;;;;;;3.13;2.30;;;-3.20;99.90;;;;;;4991184;28;20050;-80
2022/11/24 01:22:07;;;;;;;3.80;2.50;;;-3.20;99.90;;;;;;4973553;28;20049;-80
2022/11/24 01:24:34;;;;;;;3.47;2.42;;;-3.20;99.90;;;;;;4994733;28;20077;-80
2022/11/24 01:27:02;;;;;;;3.67;2.40;;;-3.20;99.90;;;;;;4994140;28;20395;-82
2022/11/24 01:29:29;;;;;;;2.40;2.20;;;-3.20;99.90;;;;;;4994245;28;20043;-79
2022/11/24 01:31:56;;;;;;;2.88;2.20;;;-3.30;99.90;;;;;;5009994;28;20092;-77
2022/11/24 01:34:25;;;;;;;2.65;2.20;;;-3.20;99.90;;;;;;4994561;28;20050;-79
2022/11/24 01:36:52;;;;;;;4.00;2.38;;;-3.20;99.90;;;;;;5014455;28;20513;-79
2022/11/24 01:39:20;;;;;;;4.07;2.55;;;-3.20;99.90;;;;;;5014350;28;20053;-81
2022/11/24 01:41:47;;;;;;;5.13;2.67;;;-3.30;99.90;;;;;;5013777;28;20459;-80
2022/11/24 01:44:24;;;;;;;4.75;3.00;;;-3.30;99.90;;;;;;5014548;28;20053;-79
2022/11/24 01:46:57;;;;;;;2.85;2.30;;;-3.30;99.90;;;;;;5007462;28;20057;-79
2022/11/24 01:49:36;;;;;;;4.32;2.50;;;-3.30;99.90;;;;;;4988387;28;20097;-79
2022/11/24 01:52:09;;;;;;;3.63;2.63;;;-3.30;99.90;;;;;;5014384;28;20049;-81
2022/11/24 01:54:41;;;;;;;7.07;3.42;;;-3.20;99.90;;;;;;5014232;28;20053;-79
2022/11/24 01:57:13;;;;;;;7.00;2.50;;;-3.20;99.90;;;;;;5014398;28;20058;-80
2022/11/24 01:59:41;;;;;;;4.50;2.60;;;-3.20;99.90;;;;;;5011559;28;20304;-80
2022/11/24 02:02:09;;;;;;;5.80;2.92;;;-3.20;99.90;;;;;;5012912;28;20041;-74
2022/11/24 02:04:39;;;;;;;5.57;3.00;;;-3.30;99.90;;;;;;5013975;28;20054;-79
2022/11/24 02:07:07;;;;;;;3.13;2.42;;;-3.30;99.90;;;;;;5011962;28;20038;-74
2022/11/24 02:09:41;;;;;;;3.58;2.55;;;-3.30;99.90;;;;;;5012555;28;20394;-79
2022/11/24 02:12:08;;;;;;;4.13;2.83;;;-3.30;99.90;;;;;;5012513;28;20156;-79
2022/11/24 02:14:38;;;;;;;3.97;3.00;;;-3.40;99.90;;;;;;5012343;28;20068;-79
2022/11/24 02:17:05;;;;;;;5.10;3.25;;;-3.40;99.90;;;;;;5011427;28;20050;-75
2022/11/24 02:19:47;;;;;;;4.50;2.45;;;-3.30;99.90;;;;;;5013403;28;20103;-74
2022/11/24 02:22:21;;;;;;;6.07;3.15;;;-3.30;99.90;;;;;;5013902;28;20073;-74
2022/11/24 02:24:52;;;;;;;5.45;2.85;;;-3.30;99.90;;;;;;5013637;28;20084;-74
2022/11/24 02:27:22;;;;;;;4.60;3.10;;;-3.20;99.90;;;;;;5013313;28;20053;-74
2022/11/24 02:29:50;;;;;;;5.00;3.28;;;-3.20;99.90;;;;;;5013313;28;20050;-74
2022/11/24 02:32:18;;;;;;;5.97;2.92;;;-3.20;99.90;;;;;;5013602;28;20528;-74
2022/11/24 02:34:46;;;;;;;4.75;3.20;;;-3.20;99.90;;;;;;5007369;28;20054;-74
2022/11/24 02:37:13;;;;;;;5.20;3.20;;;-3.30;99.90;;;;;;5011936;28;20046;-74
2022/11/24 02:39:40;;;;;;;3.88;3.17;;;-3.30;99.90;;;;;;5013026;28;20089;-74
2022/11/24 02:42:13;;;;;;;4.95;3.10;;;-3.40;99.90;;;;;;5013258;28;20399;-75
2022/11/24 02:44:46;;;;;;;4.82;2.90;;;-3.40;99.90;;;;;;5010529;28;20092;-74
2022/11/24 02:47:13;;;;;;;;;;;-3.40;99.90;;;;;;5012298;28;20149;-74
2022/11/24 02:49:41;;;;;;;4.55;3.45;;;-3.40;99.90;;;;;;5012834;28;20360;-73
2022/11/24 02:52:08;;;;;;;5.72;2.80;;;-3.30;99.90;;;;;;4994334;28;20111;-74
2022/11/24 02:54:35;;;;;;;4.85;3.22;;;-3.30;99.90;;;;;;5012959;28;20062;-75
2022/11/24 02:57:03;;;;;;;5.13;3.58;;;-3.30;99.90;;;;;;5013161;28;20077;-72
2022/11/24 02:59:30;;;;;;;4.80;3.45;;;-3.20;99.90;;;;;;5012704;28;20053;-73
2022/11/24 03:01:59;;;;;;;4.20;2.60;;;-3.10;99.90;;;;;;5010669;28;20148;-74
2022/11/24 03:04:26;;;;;;;6.35;3.42;;;-3.10;99.90;;;;;;5012709;28;20046;-75
2022/11/24 03:06:54;;;;;;;4.88;3.13;;;-3.20;99.90;;;;;;5012753;28;20399;-75
2022/11/24 03:09:21;;;;;;;3.67;2.25;;;-3.20;99.90;;;;;;5012354;28;20046;-75
2022/11/24 03:11:49;;;;;;;6.35;3.20;;;-3.20;99.90;;;;;;5012178;28;20046;-80
2022/11/24 03:14:16;;;;;;;4.03;2.70;;;-3.20;99.90;;;;;;5012453;28;20080;-80
2022/11/24 03:16:43;;;;;;;5.00;3.17;;;-3.20;99.90;;;;;;5010923;28;20073;-80
2022/11/24 03:19:12;;;;;;;4.68;3.08;;;-3.30;99.90;;;;;;5011037;28;20553;-80
2022/11/24 03:21:40;;;;;;;4.22;2.92;;;-3.30;99.90;;;;;;5012201;28;20058;-79
2022/11/24 03:24:07;;;;;;;3.95;2.65;;;-3.30;99.90;;;;;;5012516;28;20038;-80
2022/11/24 03:26:35;;;;;;;4.50;3.35;;;-3.40;99.90;;;;;;5011150;28;20046;-79
2022/11/24 03:29:03;;;;;;;5.35;3.17;;;-3.50;99.90;;;;;;4994160;28;20041;-79
2022/11/24 03:31:31;;;;;;;5.60;2.92;;;-3.50;99.90;;;;;;5013668;28;20120;-80
2022/11/24 03:33:58;;;;;;;3.42;2.60;;;-3.50;99.90;;;;;;5014051;28;20103;-80
2022/11/24 03:36:27;;;;;;;4.47;2.92;;;-3.50;99.90;;;;;;5011996;28;20060;-79
2022/11/24 03:38:54;;;;;;;4.05;2.75;;;-3.60;99.90;;;;;;5012233;28;20524;-80
2022/11/24 03:41:22;;;;;;;3.47;2.85;;;-3.60;99.90;;;;;;5010961;28;20050;-81
2022/11/24 03:43:49;;;;;;;4.28;2.90;;;-3.60;99.90;;;;;;5012354;28;20072;-79
2022/11/24 03:46:17;;;;;;;4.53;3.08;;;-3.60;99.90;;;;;;4991990;28;20603;-79
2022/11/24 03:48:44;;;;;;;5.40;3.22;;;-3.60;99.90;;;;;;4996604;28;20137;-80
2022/11/24 03:51:12;;;;;;;3.65;2.80;;;-3.50;99.90;;;;;;4992426;28;20097;-79
2022/11/24 03:53:40;;;;;;;4.25;2.60;;;-3.50;99.90;;;;;;4991051;28;20145;-79
2022/11/24 03:56:08;;;;;;;4.93;2.75;;;-3.50;99.90;;;;;;4994897;28;20050;-79
2022/11/24 03:58:35;;;;;;;4.47;3.50;;;-3.60;99.90;;;;;;5010505;28;20057;-78
2022/11/24 04:01:03;;;;;;;6.32;2.85;;;-3.60;99.90;;;;;;5024444;28;20050;-79
2022/11/24 04:03:30;;;;;;;4.80;3.30;;;-3.60;99.90;;;;;;5006073;28;20466;-73
2022/11/24 04:05:58;;;;;;;4.60;2.50;;;-3.60;99.90;;;;;;4985133;28;20450;-73
2022/11/24 04:08:25;;;;;;;4.18;2.75;;;-3.60;99.90;;;;;;5011721;28;20050;-72
2022/11/24 04:10:55;;;;;;;4.88;3.05;;;-3.70;99.90;;;;;;4993409;28;20046;-73
2022/11/24 04:13:23;;;;;;;5.15;3.45;;;-3.70;99.90;;;;;;5012286;28;20056;-74
2022/11/24 04:15:51;;;;;;;4.40;3.28;;;-3.70;99.90;;;;;;5010520;28;20049;-74
2022/11/24 04:18:19;;;;;;;6.55;3.15;;;-3.70;99.90;;;;;;5011676;28;20062;-77
2022/11/24 04:20:50;;;;;;;7.13;3.55;;;-3.80;99.90;;;;;;4993143;28;20453;-77
2022/11/24 04:23:18;;;;;;;5.57;3.67;;;-3.80;99.90;;;;;;5010526;28;20135;-76
2022/11/24 04:25:45;;;;;;;5.03;2.95;;;-3.80;99.90;;;;;;5009906;28;20041;-72
2022/11/24 04:28:14;;;;;;;4.75;3.22;;;-3.80;99.90;;;;;;5009865;28;20050;-72
2022/11/24 04:30:43;;;;;;;6.70;3.40;;;-3.80;99.90;;;;;;5009863;28;20144;-70
2022/11/24 04:33:12;;;;;;;5.22;3.45;;;-3.80;99.90;;;;;;5010215;28;20196;-73
2022/11/24 04:35:39;;;;;;;6.50;3.65;;;-3.80;99.90;;;;;;5009506;28;20461;-73
2022/11/24 04:38:07;;;;;;;6.55;3.65;;;-3.90;99.90;;;;;;5008062;28;20045;-72
2022/11/24 04:40:38;;;;;;;6.40;3.53;;;-3.80;99.90;;;;;;5009359;28;20053;-71
2022/11/24 04:43:05;;;;;;;8.00;4.03;;;-3.80;99.90;;;;;;5010194;28;20046;-72
2022/11/24 04:45:34;;;;;;;5.68;3.70;;;-3.80;99.90;;;;;;5011255;28;20148;-73
2022/11/24 04:48:01;;;;;;;7.70;3.70;;;-3.80;99.90;;;;;;5011848;28;20471;-72
2022/11/24 04:50:32;;;;;;;6.95;3.60;;;-3.80;99.90;;;;;;5001908;28;20050;-72
2022/11/24 04:52:59;;;;;;;9.98;4.15;;;-3.70;99.90;;;;;;5016837;28;20136;-73
2022/11/24 04:55:31;;;;;;;4.15;3.15;;;-3.80;99.90;;;;;;5009581;28;20053;-78
2022/11/24 04:58:16;;;;;;;6.85;3.40;;;-3.80;99.90;;;;;;5011438;28;20509;-81
2022/11/24 05:00:45;;;;;;;7.05;3.83;;;-3.90;99.90;;;;;;5004986;28;20077;-75
2022/11/24 05:03:12;;;;;;;4.95;3.35;;;-3.90;99.90;;;;;;5008122;28;20050;-74
2022/11/24 05:05:40;;;;;;;7.82;3.60;;;-3.90;99.90;;;;;;5008742;28;20065;-72
2022/11/24 05:08:07;;;;;;;6.75;3.75;;;-3.90;99.90;;;;;;5009978;28;20057;-74
2022/11/24 05:10:34;;;;;;;7.85;4.53;;;-3.90;99.90;;;;;;5014667;28;20053;-73
2022/11/24 05:13:04;;;;;;;6.55;3.97;;;-3.90;99.90;;;;;;5013510;28;20042;-71
2022/11/24 05:15:31;;;;;;;6.18;3.75;;;-3.80;99.90;;;;;;5013005;28;20049;-72
2022/11/24 05:18:00;;;;;;;5.55;3.65;;;-3.80;99.90;;;;;;5011108;28;20137;-72
2022/11/24 05:20:27;;;;;;;5.88;3.58;;;-3.80;99.90;;;;;;5003753;28;20054;-73
2022/11/24 05:22:54;;;;;;;5.32;3.53;;;-3.80;99.90;;;;;;4992110;28;20125;-73
2022/11/24 05:25:22;;;;;;;8.50;4.15;;;-3.70;99.90;;;;;;4994757;28;20149;-73
2022/11/24 05:27:49;;;;;;;5.53;3.17;;;-3.70;99.90;;;;;;5008597;28;20104;-73
2022/11/24 05:30:17;;;;;;;5.35;3.33;;;-3.70;99.90;;;;;;5007535;28;20144;-74
2022/11/24 05:32:44;;;;;;;6.63;3.95;;;-3.70;99.90;;;;;;5003548;28;20054;-73
2022/11/24 05:35:13;;;;;;;4.88;3.55;;;-3.70;99.90;;;;;;5010875;28;20087;-73
2022/11/24 05:37:40;;;;;;;7.32;4.00;;;-3.80;99.90;;;;;;5012084;28;20073;-73
2022/11/24 05:40:09;;;;;;;4.32;3.00;;;-3.80;99.90;;;;;;5013327;28;20056;-74
2022/11/24 05:42:42;;;;;;;7.03;3.83;;;-3.80;99.90;;;;;;5011508;28;20072;-74
2022/11/24 05:45:13;;;;;;;6.72;4.10;;;-3.90;99.90;;;;;;5011246;28;20472;-73
2022/11/24 05:47:41;;;;;;;4.88;3.85;;;-3.90;99.90;;;;;;5011508;28;20464;-75
2022/11/24 05:50:13;;;;;;;6.45;3.95;;;-3.80;99.90;;;;;;4995366;28;20052;-75
2022/11/24 05:52:40;;;;;;;6.97;3.75;;;-3.80;99.90;;;;;;4993055;28;20062;-75
2022/11/24 05:55:10;;;;;;;10.02;3.40;;;-3.80;99.90;;;;;;5008787;28;20620;-77
2022/11/24 05:57:37;;;;;;;7.45;4.00;;;-3.80;99.90;;;;;;5010454;28;20057;-77
2022/11/24 06:00:07;;;;;;;4.45;3.50;;;-3.70;99.90;;;;;;5011429;28;20275;-78
2022/11/24 06:02:41;;;;;;;7.63;3.40;;;-3.80;99.90;;;;;;4993760;28;20128;-77
2022/11/24 06:05:09;;;;;;;5.68;3.30;;;-3.80;99.90;;;;;;5010900;28;20038;-74
2022/11/24 06:07:38;;;;;;;4.35;3.40;;;-3.80;99.90;;;;;;5012268;28;20640;-74
2022/11/24 06:10:06;;;;;;;8.38;3.90;;;-3.80;99.90;;;;;;5012276;28;20481;-74
2022/11/24 06:12:35;;;;;;;7.13;4.03;;;-3.80;99.90;;;;;;5011424;28;20466;-73
2022/11/24 06:15:03;;;;;;;9.13;3.80;;;-3.80;99.90;;;;;;5012139;28;20060;-75
2022/11/24 06:17:31;;;;;;;7.97;4.65;;;-3.90;99.90;;;;;;5008625;28;20053;-74
2022/11/24 06:19:58;;;;;;;8.27;4.50;;;-3.90;99.90;;;;;;5012540;28;20144;-74
2022/11/24 06:22:26;;;;;;;10.50;5.07;;;-3.90;99.90;;;;;;5011365;28;20621;-75
2022/11/24 06:24:54;;;;;;;9.32;4.55;;;-3.90;99.90;;;;;;5004111;28;20054;-74
2022/11/24 06:27:22;;;;;;;8.02;4.35;;;-3.90;99.90;;;;;;5009791;28;20263;-74
2022/11/24 06:29:49;;;;;;;7.90;4.45;;;-3.80;99.90;;;;;;5026541;28;20053;-74
2022/11/24 06:32:17;;;;;;;10.15;4.50;;;-3.80;99.90;;;;;;4985860;28;20053;-73
2022/11/24 06:34:44;;;;;;;8.00;4.57;;;-3.80;99.90;;;;;;5008599;28;20617;-74
2022/11/24 06:37:12;;;;;;;9.45;4.57;;;-3.80;99.90;;;;;;5011527;28;20054;-74
2022/11/24 06:39:39;;;;;;;7.97;4.30;;;-3.80;99.90;;;;;;5011695;28;20129;-73
2022/11/24 06:42:08;;;;;;;6.50;4.10;;;-3.70;99.90;;;;;;5006129;28;20413;-74
2022/11/24 06:44:36;;;;;;;8.75;4.60;;;-3.70;99.90;;;;;;5011690;28;20112;-72
2022/11/24 06:47:03;;;;;;;9.63;5.65;;;-3.70;99.90;;;;;;5011177;28;20072;-74
2022/11/24 06:49:30;;;;;;;6.68;4.40;;;-3.80;99.90;;;;;;5007892;28;20510;-73
2022/11/24 06:51:58;;;;;;;9.00;5.00;;;-3.90;99.90;;;;;;5010481;28;20122;-75
2022/11/24 06:54:25;;;;;;;9.85;4.50;;;-3.80;99.90;;;;;;5012480;28;20128;-74
2022/11/24 06:56:57;;;;;;;6.47;4.25;;;-3.90;99.90;;;;;;5010805;28;20048;-72
2022/11/24 06:59:26;;;;;;;9.80;5.47;;;-3.90;99.90;;;;;;5006566;28;20050;-72
2022/11/24 07:01:54;;;;;;;7.82;4.72;;;-3.80;99.90;;;;;;4967794;28;20042;-72
2022/11/24 07:04:22;;;;;;;11.85;4.35;;;-3.80;99.90;;;;;;5005617;28;20050;-73
2022/11/24 07:06:49;;;;;;;9.43;5.30;;;-3.80;99.90;;;;;;5007857;28;20046;-73
2022/11/24 07:09:16;;;;;;;11.23;4.70;;;-3.80;99.90;;;;;;5008092;28;20086;-73
2022/11/24 07:11:44;;;;;;;10.60;5.45;;;-3.70;99.90;;;;;;5008505;28;20034;-74
2022/11/24 07:14:11;;;;;;;8.23;4.78;;;-3.70;99.90;;;;;;5006808;28;20076;-74
2022/11/24 07:16:40;;;;;;;6.88;4.35;;;-3.70;99.90;;;;;;5001427;28;20050;-73
2022/11/24 07:19:09;;;;;;;8.40;5.15;;;-3.70;99.90;;;;;;5003343;28;20097;-74
2022/11/24 07:21:36;;;;;;;8.57;5.05;;;-3.70;99.90;;;;;;5004926;28;20111;-74
2022/11/24 07:24:04;;;;;;;10.10;5.05;;;-3.60;99.90;;;;;;5006039;28;20038;-72
2022/11/24 07:26:35;;;;;;;7.18;4.57;;;-3.60;99.90;;;;;;5003339;28;20140;-73
2022/11/24 07:29:04;;;;;;;7.93;5.32;;;-3.60;99.90;;;;;;5022514;28;20046;-71
2022/11/24 07:31:31;;;;;;;8.98;4.63;;;-3.50;99.90;;;;;;5004385;28;20034;-73
2022/11/24 07:34:00;;;;;;;11.02;4.93;;;-3.50;99.90;;;;;;5005841;28;20046;-74
2022/11/24 07:36:28;;;;;;;11.50;4.70;;;-3.50;99.90;;;;;;5007137;28;20056;-72
2022/11/24 07:38:55;;;;;;;9.20;5.20;;;-3.50;99.90;;;;;;5003343;28;20117;-74
2022/11/24 07:41:22;;;;;;;9.07;4.80;;;-3.50;99.90;;;;;;5004845;28;20052;-72
2022/11/24 07:43:50;;;;;;;8.48;4.43;;;-3.50;99.90;;;;;;5008743;28;20444;-72
2022/11/24 07:46:19;;;;;;;11.90;4.35;;;-3.60;99.90;;;;;;5008306;28;20046;-72
2022/11/24 07:48:47;;;;;;;10.82;4.63;;;-3.70;99.90;;;;;;5006804;28;20481;-72
2022/11/24 07:51:16;;;;;;;12.25;5.00;;;-3.70;99.90;;;;;;5022874;28;20041;-71
2022/11/24 07:53:45;;;;;;;7.57;4.65;;;-3.60;99.90;;;;;;5023618;28;20054;-72
2022/11/24 07:56:12;;;;;;;10.10;4.90;;;-3.60;99.90;;;;;;5005880;28;20057;-71
2022/11/24 07:58:40;;;;;;;9.48;4.13;;;-3.40;99.90;;;;;;5008157;28;20060;-73
2022/11/24 08:01:12;;;;;;;7.43;4.18;;;-3.40;99.90;;;;;;5006646;28;20125;-71
2022/11/24 08:03:41;;;;;;;11.30;3.60;;;-3.40;99.90;;;;;;5007414;28;20060;-71
2022/11/24 08:06:09;;;;;;;6.35;3.20;;;-3.30;99.90;;;;;;5006197;28;20413;-73
2022/11/24 08:08:37;;;;;;;6.35;3.65;;;-3.20;99.90;;;;;;5005258;28;20100;-70
2022/11/24 08:11:06;;;;;;;9.25;3.80;;;-3.20;99.90;;;;;;5005329;28;20048;-71
2022/11/24 08:13:35;;;;;;;7.47;3.08;;;-3.20;99.90;;;;;;5007266;28;20524;-73
2022/11/24 08:16:07;;;;;;;8.07;3.10;;;-3.20;99.90;;;;;;5006921;28;20042;-71
2022/11/24 08:18:35;;;;;;;5.97;3.50;;;-3.10;99.90;;;;;;5007805;28;20061;-72
2022/11/24 08:21:03;;;;;;;4.20;3.05;;;-3.10;99.90;;;;;;5004763;28;20069;-72
2022/11/24 08:23:31;;;;;;;4.95;3.42;;;-3.10;99.90;;;;;;5005411;28;20077;-73
2022/11/24 08:26:27;;;;;;;5.55;3.15;;;-3.10;99.90;;;;;;5005517;28;20402;-72
2022/11/24 08:29:05;;;;;;;3.88;2.70;;;-3.10;99.90;;;;;;5002234;28;20073;-74
2022/11/24 08:31:59;;;;;;;4.22;2.92;;;-3.10;99.90;;;;;;5004651;28;20073;-74
2022/11/24 08:34:34;;;;;;;5.13;2.58;;;-3.10;99.90;;;;;;5004914;28;20541;-74
2022/11/24 08:37:19;;;;;;;4.70;3.10;;;-3.10;99.90;;;;;;5006442;28;20533;-74
2022/11/24 08:40:03;;;;;;;6.68;3.45;;;-3.10;99.90;;;;;;5005957;28;20285;-73
2022/11/24 08:42:42;;;;;;;5.78;3.17;;;-3.10;99.90;;;;;;5006647;28;20075;-73
2022/11/24 08:45:22;;;;;;;5.63;3.50;;;-3.00;99.90;;;;;;5006354;28;20165;-74
2022/11/24 08:48:16;;;;;;;3.42;2.47;;;-2.90;99.90;;;;;;5005770;28;20119;-72
2022/11/24 08:51:17;;;;;;;3.83;2.70;;;-2.90;99.90;;;;;;5006876;28;20503;-73
2022/11/24 08:54:05;;;;;;;4.15;3.33;;;-2.90;99.90;;;;;;4990183;28;20054;-71
2022/11/24 08:56:43;;;;;;;4.40;3.20;;;-3.00;99.90;;;;;;5003454;28;20459;-72
2022/11/24 08:59:20;;;;;;;5.78;3.17;;;-3.00;99.90;;;;;;5005596;28;20057;-74
2022/11/24 09:02:02;;;;;;;5.63;3.00;;;-3.10;99.90;;;;;;4987551;28;20065;-72
2022/11/24 09:07:40;;;;;;;4.72;3.38;;;-3.20;99.90;;;;;;5006472;28;20065;-77
2022/11/24 09:10:18;;;;;;;3.67;2.70;;;-3.20;99.90;;;;;;5040787;28;20050;-73
2022/11/24 09:12:53;;;;;;;3.65;2.85;;;-3.20;99.90;;;;;;5025418;28;20054;-74
2022/11/24 09:15:33;;;;;;;7.10;3.25;;;-3.10;99.90;;;;;;5027119;28;20041;-74
2022/11/24 09:18:08;;;;;;;5.95;3.75;;;-3.10;99.90;;;;;;5023552;28;20061;-75
2022/11/24 09:20:35;;;;;;;6.45;3.58;;;-3.10;99.90;;;;;;5024085;28;20083;-75
2022/11/24 09:23:03;;;;;;;9.35;4.00;;;-3.10;99.90;;;;;;5026047;28;20141;-74
2022/11/24 09:25:30;;;;;;;9.23;4.43;;;-3.20;99.90;;;;;;5025446;28;20513;-74
2022/11/24 09:27:58;;;;;;;7.00;3.83;;;-3.20;99.90;;;;;;5025803;28;20047;-76
2022/11/24 09:30:27;;;;;;;8.77;4.43;;;-3.20;99.90;;;;;;5025724;28;20128;-75
2022/11/24 09:32:56;;;;;;;8.68;4.65;;;-3.10;99.90;;;;;;5021600;28;20042;-74
2022/11/24 09:35:23;;;;;;;7.95;4.75;;;-3.00;99.90;;;;;;5023257;28;20136;-74
2022/11/24 09:37:51;;;;;;;10.60;4.72;;;-3.00;99.90;;;;;;5023847;28;20145;-74
2022/11/24 09:40:19;;;;;;;7.35;4.10;;;-3.00;99.90;;;;;;5025848;28;20045;-74
2022/11/24 09:43:00;;;;;;;6.97;3.90;;;-2.90;99.90;;;;;;5025919;28;20088;-74
2022/11/24 09:45:43;;;;;;;7.55;4.43;;;-2.80;99.90;;;;;;5024374;28;20544;-74
2022/11/24 09:48:16;;;;;;;9.35;4.93;;;-2.80;99.90;;;;;;5025747;28;20445;-73
2022/11/24 09:50:46;;;;;;;7.85;4.97;;;-2.80;99.90;;;;;;5026044;28;20149;-73
2022/11/24 09:53:29;;;;;;;8.93;4.80;;;-2.70;99.90;;;;;;5025908;28;20049;-74
2022/11/24 09:56:00;;;;;;;9.50;4.63;;;-2.70;99.90;;;;;;5028112;28;20497;-73
2022/11/24 09:58:38;;;;;;;11.32;4.53;;;-2.60;99.90;;;;;;5029436;28;20428;-71
2022/11/24 10:01:15;;;;;;;7.07;4.57;;;-2.70;99.90;;;;;;5024196;28;20096;-76
2022/11/24 10:03:45;;;;;;;8.60;5.07;;;-2.70;99.90;;;;;;5027989;28;20053;-75
2022/11/24 10:06:25;;;;;;;6.63;3.83;;;-2.70;99.90;;;;;;5027930;28;20502;-77
2022/11/24 10:09:36;;;;;;;8.73;4.22;;;-2.80;99.90;;;;;;5026839;28;20175;-74
2022/11/24 10:12:19;;;;;;;13.23;4.40;;;-2.80;99.90;;;;;;5025564;28;20496;-74
2022/11/24 10:15:21;;;;;;;10.45;4.53;;;-2.70;99.90;;;;;;5042308;28;20460;-75
2022/11/24 10:18:20;;;;;;;7.32;4.30;;;-2.70;99.90;;;;;;5026957;28;20830;-76
2022/11/24 10:21:00;;;;;;;8.00;4.00;;;-2.70;99.90;;;;;;5041255;28;20199;-76
2022/11/24 10:23:50;;;;;;;8.98;4.63;;;-2.70;99.90;;;;;;5028414;28;20099;-74
2022/11/24 10:26:25;;;;;;;9.57;4.10;;;-2.70;99.90;;;;;;5041797;28;20050;-78
2022/11/24 10:28:55;;;;;;;8.10;4.20;;;-2.70;99.90;;;;;;5027733;28;20057;-76
2022/11/24 10:31:33;;;;;;;9.05;4.05;;;-2.60;99.90;;;;;;5027585;28;20132;-76
2022/11/24 10:34:17;;;;;;;8.57;4.68;;;-2.60;99.90;;;;;;5028349;28;20123;-76
2022/11/24 10:36:52;;;;;;;7.65;4.45;;;-2.60;99.90;;;;;;5029026;28;20061;-78
2022/11/24 10:39:29;;;;;;;7.53;3.97;;;-2.60;99.90;;;;;;5027583;28;20041;-78
2022/11/24 10:42:04;;;;;;;7.75;4.32;;;-2.60;99.90;;;;;;5028428;28;20041;-75
2022/11/24 10:44:32;;;;;;;7.72;4.82;;;-2.70;99.90;;;;;;5026280;28;20115;-71
2022/11/24 10:46:59;;;;;;;6.45;3.90;;;-2.70;99.90;;;;;;5024511;28;20592;-70
2022/11/24 10:49:32;;;;;;;5.22;3.25;;;-2.80;99.90;;;;;;5028890;28;20175;-71
2022/11/24 10:52:05;;;;;;;;;;;-2.90;99.90;;;;;;5028138;28;20081;-70
2022/11/24 10:54:34;;;;;;;5.95;3.95;;;-2.90;99.90;;;;;;5025878;28;19988;-72
2022/11/24 10:57:02;;;;;;;11.50;5.10;;;-2.90;99.90;;;;;;5025929;28;20391;-73
2022/11/24 10:59:35;;;;;;;7.97;4.90;;;-2.90;99.90;;;;;;5027130;28;20092;-73
2022/11/24 11:02:40;;;;;;;7.88;4.40;;;-2.90;99.90;;;;;;5025874;28;20045;-73
2022/11/24 11:05:42;;;;;;;6.45;4.38;;;-2.90;99.90;;;;;;5027941;28;20053;-73
2022/11/24 11:08:25;;;;;;;7.82;4.38;;;-2.90;99.90;;;;;;5024270;28;20398;-73
2022/11/24 11:11:14;;;;;;;6.65;4.00;;;-3.00;99.90;;;;;;5025608;28;20057;-72
2022/11/24 11:13:55;;;;;;;9.43;4.75;;;-3.10;99.90;;;;;;5026863;28;20131;-72
2022/11/24 11:16:38;;;;;;;7.38;4.38;;;-3.10;99.90;;;;;;5026845;28;20053;-71
2022/11/24 11:19:32;;;;;;;7.90;4.85;;;-3.10;99.90;;;;;;5027200;28;20091;-71
2022/11/24 11:22:04;;;;;;;11.82;4.55;;;-3.10;99.90;;;;;;5026482;28;20061;-70
2022/11/24 11:24:32;;;;;;;9.27;5.13;;;-3.10;99.90;;;;;;5025966;28;20049;-71
2022/11/24 11:27:01;;;;;;;9.48;5.20;;;-3.10;99.90;;;;;;5009811;28;20413;-73
2022/11/24 11:29:30;;;;;;;9.50;4.90;;;-3.10;99.90;;;;;;5026496;28;20098;-73
2022/11/24 11:32:01;;;;;;;9.38;5.13;;;-3.10;99.90;;;;;;5027871;28;20042;-71
2022/11/24 11:34:35;;;;;;;9.70;4.47;;;-3.10;99.90;;;;;;5024299;28;20103;-72
2022/11/24 11:37:05;;;;;;;7.07;4.07;;;-3.00;99.90;;;;;;5023187;28;20370;-74
2022/11/24 11:39:36;;;;;;;6.90;4.45;;;-3.10;99.90;;;;;;5024003;28;20046;-75
2022/11/24 11:42:18;;;;;;;10.93;4.88;;;-3.20;99.90;;;;;;5027714;28;20409;-74
2022/11/24 11:44:53;;;;;;;8.77;4.63;;;-3.30;99.90;;;;;;5043272;28;20459;-74
2022/11/24 11:47:27;;;;;;;6.70;4.30;;;-3.30;99.90;;;;;;5026525;28;20524;-74
2022/11/24 11:49:54;;;;;;;7.45;4.32;;;-3.30;99.90;;;;;;5025699;28;20042;-74
2022/11/24 11:53:00;;;;;;;8.40;4.20;;;-3.30;99.90;;;;;;5026279;28;20451;-74
2022/11/24 11:55:44;;;;;;;7.90;4.43;;;-3.30;99.90;;;;;;5024110;28;20168;-74
2022/11/24 11:58:42;;;;;;;11.40;4.20;;;-3.30;99.90;;;;;;5041122;28;20517;-74
2022/11/24 12:01:33;;;;;;;7.43;4.03;;;-3.30;99.90;;;;;;5025741;28;20045;-74
2022/11/24 12:04:14;;;;;;;6.93;4.47;;;-3.30;99.90;;;;;;5025587;28;21099;-74
2022/11/24 12:07:05;;;;;;;9.07;3.97;;;-3.30;99.90;;;;;;5020809;28;20049;-74
2022/11/24 12:09:51;;;;;;;7.85;4.38;;;-3.30;99.90;;;;;;5039354;28;20049;-72
2022/11/24 12:12:54;;;;;;;10.73;4.40;;;-3.40;99.90;;;;;;5021713;28;20045;-70
2022/11/24 12:15:33;;;;;;;10.20;4.68;;;-3.40;99.90;;;;;;5025572;28;20462;-74
2022/11/24 12:18:15;;;;;;;10.75;5.63;;;-3.50;99.90;;;;;;5026201;28;20067;-75
2022/11/24 12:20:55;;;;;;;9.35;4.60;;;-3.50;99.90;;;;;;5001863;28;20060;-75
2022/11/24 12:23:38;;;;;;;10.85;4.85;;;-3.50;99.90;;;;;;5028896;28;20153;-75
2022/11/24 12:26:14;;;;;;;13.52;5.10;;;-3.50;99.90;;;;;;5014957;28;20136;-72
2022/11/24 12:29:03;;;;;;;11.23;4.68;;;-3.50;99.90;;;;;;5019004;28;20064;-73
2022/11/24 12:31:43;;;;;;;9.50;5.25;;;-3.50;99.90;;;;;;5021160;28;20049;-74
2022/11/24 12:34:33;;;;;;;11.27;5.63;;;-3.50;99.90;;;;;;5019182;28;20175;-75
2022/11/24 12:37:20;;;;;;;9.65;4.97;;;-3.50;99.90;;;;;;5018624;28;20502;-74
2022/11/24 12:39:59;;;;;;;12.32;5.88;;;-3.40;99.90;;;;;;5042430;28;20046;-76
2022/11/24 12:42:42;;;;;;;15.10;6.60;;;-3.40;99.90;;;;;;5024998;28;20046;-75
2022/11/24 12:45:15;;;;;;;;;;;-3.40;99.90;;;;;;5027711;28;20037;-73
2022/11/24 12:48:05;;;;;;;11.20;5.10;;;-3.40;99.90;;;;;;5024501;28;20337;-73
2022/11/24 12:50:37;;;;;;;17.70;6.82;;;-3.40;99.90;;;;;;5024838;28;20389;-73
2022/11/24 12:53:11;;;;;;;11.85;6.53;;;-3.40;99.90;;;;;;5024096;28;20050;-73
2022/11/24 12:55:40;;;;;;;18.92;6.95;;;-3.50;99.90;;;;;;5024858;28;20133;-72
2022/11/24 12:58:17;;;;;;;11.85;5.70;;;-3.60;99.90;;;;;;5023977;28;20049;-74
2022/11/24 13:00:58;;;;;;;14.68;7.60;;;-3.60;99.90;;;;;;5011539;28;20053;-73
2022/11/24 13:03:40;;;;;;;15.90;6.47;;;-3.70;99.90;;;;;;5026837;28;20567;-74
2022/11/24 13:06:16;;;;;;;15.93;6.00;;;-3.60;99.90;;;;;;5028012;28;20420;-72
2022/11/24 13:08:59;;;;;;;14.27;6.40;;;-3.60;99.90;;;;;;5036004;28;20056;-79
2022/11/24 13:11:41;;;;;;;16.15;6.63;;;-3.70;99.90;;;;;;5020662;28;20041;-71
2022/11/24 13:14:16;;;;;;;19.33;7.55;;;-3.80;99.90;;;;;;5027519;28;20456;-73